Kynouria — V7VY6 — position and weather

sailwx.info

Track history (hours):
 
Tides and Currents Weather Stations Pressure Air Temp Water Temp Dewpoint Dewpoint Depression Visibility Wind Speed Wind Dir Waves Ship Positions

Kynouria

Last reported at 2017-Nov-30 07:18 UTC. Time now 2017-Dec-14 08:14 UTC.
Position N 01°18' E 103°21'.
Warning: this ship's position is 14 days out of date.

Length 229 m; draft 14.5 m.

Type: Ship. MMSI: 538004243.

Date/timePositionNaut miles runAvg speedWind from/ knotsBaromVisibWave heightAir tempDewpointWater temp
2017-Nov-30 07:18N 01°18' E 103°21'513.0
2017-Nov-30 06:56N 01°15' E 103°25'512.6
2017-Nov-30 06:30N 01°13' E 103°30'612.4
2017-Nov-30 06:00N 01°12' E 103°36'611.6
2017-Nov-30 05:30N 01°10' E 103°42'510.1
2017-Nov-30 05:00N 01°10' E 103°47'611.2
2017-Nov-30 04:30N 01°12' E 103°52'5 9.7
2017-Nov-30 04:00N 01°14' E 103°56'4 7.6
2017-Nov-30 03:30N 01°17' E 103°59'0 0.3
2017-Nov-30 02:46N 01°17' E 103°59'0 0.3
2017-Nov-30 02:16N 01°17' E 103°59'0 0.2
2017-Nov-30 01:58N 01°17' E 103°59'0 0.1
2017-Nov-30 01:28N 01°17' E 103°59'0 0.0
2017-Nov-30 00:58N 01°17' E 103°59'0 0.0
2017-Nov-30 00:28N 01°17' E 103°59'0 0.1
2017-Nov-29 23:58N 01°17' E 103°59'0 0.0
2017-Nov-29 23:04N 01°17' E 103°59'0 0.0
2017-Nov-29 22:58N 01°17' E 103°59'0 0.0
2017-Nov-29 22:28N 01°17' E 103°59'0 0.1
2017-Nov-29 21:58N 01°17' E 103°59'0 0.0
2017-Nov-29 21:28N 01°17' E 103°59'0 0.1
2017-Nov-29 20:40N 01°17' E 103°59'0 0.1
2017-Nov-29 20:28N 01°17' E 103°59'0 0.2
2017-Nov-29 19:52N 01°17' E 103°59'0 0.0
2017-Nov-29 19:28N 01°17' E 103°59'0 0.1
2017-Nov-29 19:00N 01°17' E 103°59'1 1.9
2017-Nov-29 18:31N 01°16' E 103°58'3 5.9
2017-Nov-29 18:00N 01°16' E 104°01'5 9.6
2017-Nov-29 17:30N 01°16' E 104°06'610.5
2017-Nov-29 16:56N 01°17' E 104°12'  
Track history (hours):
 
Tides and Currents Weather Stations Pressure Air Temp Water Temp Dewpoint Dewpoint Depression Visibility Wind Speed Wind Dir Waves Ship Positions

Kynouria

Last reported at 2017-Nov-30 07:18 UTC. Time now 2017-Dec-14 08:14 UTC.
Position N 01°18' E 103°21'.
Warning: this ship's position is 14 days out of date.

Length 229 m; draft 14.5 m.

Type: Ship. MMSI: 538004243.

Date/timePositionNaut miles runAvg speedWind from/ knotsBaromVisibWave heightAir tempDewpointWater temp
2017-Nov-30 07:18N 01°18' E 103°21'513.0
2017-Nov-30 06:56N 01°15' E 103°25'512.6
2017-Nov-30 06:30N 01°13' E 103°30'612.4
2017-Nov-30 06:00N 01°12' E 103°36'611.6
2017-Nov-30 05:30N 01°10' E 103°42'510.1
2017-Nov-30 05:00N 01°10' E 103°47'611.2
2017-Nov-30 04:30N 01°12' E 103°52'5 9.7
2017-Nov-30 04:00N 01°14' E 103°56'4 7.6
2017-Nov-30 03:30N 01°17' E 103°59'0 0.3
2017-Nov-30 02:46N 01°17' E 103°59'0 0.3
2017-Nov-30 02:16N 01°17' E 103°59'0 0.2
2017-Nov-30 01:58N 01°17' E 103°59'0 0.1
2017-Nov-30 01:28N 01°17' E 103°59'0 0.0
2017-Nov-30 00:58N 01°17' E 103°59'0 0.0
2017-Nov-30 00:28N 01°17' E 103°59'0 0.1
2017-Nov-29 23:58N 01°17' E 103°59'0 0.0
2017-Nov-29 23:04N 01°17' E 103°59'0 0.0
2017-Nov-29 22:58N 01°17' E 103°59'0 0.0
2017-Nov-29 22:28N 01°17' E 103°59'0 0.1
2017-Nov-29 21:58N 01°17' E 103°59'0 0.0
2017-Nov-29 21:28N 01°17' E 103°59'0 0.1
2017-Nov-29 20:40N 01°17' E 103°59'0 0.1
2017-Nov-29 20:28N 01°17' E 103°59'0 0.2
2017-Nov-29 19:52N 01°17' E 103°59'0 0.0
2017-Nov-29 19:28N 01°17' E 103°59'0 0.1
2017-Nov-29 19:00N 01°17' E 103°59'1 1.9
2017-Nov-29 18:31N 01°16' E 103°58'3 5.9
2017-Nov-29 18:00N 01°16' E 104°01'5 9.6
2017-Nov-29 17:30N 01°16' E 104°06'610.5
2017-Nov-29 16:56N 01°17' E 104°12'  

Dump ship's entire track history